Domestic, Indiana
Current Conditions -  °F | °C
As of 6:55 AM on Friday 19 Dec 2014 (Local Time) from KHHG Reporting Station
Overcast Overcast  
Wind Chill: 26°   Ceiling: 2400
Heat Index: 26°   Visibility: 10mi
Dew Point: 22°   Wind: 3mph
Humidity: 87%   Direction: 270°W
Pressure: 30.26"   Gusts: NA
Location:  40.7175°N, 85.1549°W
Report Text: KHHG 191155Z AUTO 27003KT 10SM OVC024 M04/M05 A3026 RMK AO2 T10361055 11034 21036
Loading
Personal Weather Stations






























Interactive Weather Map New forecast layout! Learn more

10-Day Weather Forecast

Advertisements
Track Severe Weather on mobile